Time;durP1;ratioP1;P1;durP2;ratioP2;P2;SDS_P1;SDS_P2;PMS_P1;PMS_P2;Temp;Humidity;BMP_temperature;BMP_pressure;BME280_temperature;BME280_humidity;BME280_pressure;Samples;Min_cycle;Max_cycle;Signal;HPM_P1;HPM_P2
2022/08/06 00:01:37;;;;;;;4.55;1.83;;;15.10;99.90;;;;;;5070721;28;20188;-73
2022/08/06 00:04:03;;;;;;;2.97;1.63;;;15.10;99.90;;;;;;5057597;28;20639;-69
2022/08/06 00:06:29;;;;;;;1.95;1.63;;;15.00;99.90;;;;;;5091900;28;20192;-70
2022/08/06 00:08:55;;;;;;;3.83;1.85;;;14.90;99.90;;;;;;5066818;28;20204;-69
2022/08/06 00:11:20;;;;;;;3.03;1.60;;;14.90;99.90;;;;;;5088317;28;20189;-69
2022/08/06 00:13:46;;;;;;;2.63;1.70;;;14.90;99.90;;;;;;5094370;28;20192;-69
2022/08/06 00:16:12;;;;;;;2.08;1.92;;;14.90;99.90;;;;;;5072100;28;20188;-70
2022/08/06 00:18:37;;;;;;;3.13;2.00;;;14.90;99.90;;;;;;5086005;28;20210;-73
2022/08/06 00:21:03;;;;;;;5.10;1.95;;;14.80;99.90;;;;;;5074527;28;20244;-69
2022/08/06 00:23:29;;;;;;;1.77;1.20;;;14.80;99.90;;;;;;5076484;28;20263;-69
2022/08/06 00:25:55;;;;;;;3.97;2.05;;;14.80;99.90;;;;;;5065951;28;20183;-69
2022/08/06 00:28:22;;;;;;;6.00;1.92;;;14.70;99.90;;;;;;5089653;28;20184;-70
2022/08/06 00:30:48;;;;;;;1.80;1.63;;;14.70;99.90;;;;;;5093471;28;20234;-69
2022/08/06 00:33:14;;;;;;;4.20;1.50;;;14.70;99.90;;;;;;5094111;28;20283;-70
2022/08/06 00:35:39;;;;;;;1.58;1.48;;;14.70;99.90;;;;;;5059213;28;20546;-69
2022/08/06 00:38:05;;;;;;;8.13;1.85;;;14.70;99.90;;;;;;5075274;28;20176;-73
2022/08/06 00:40:31;;;;;;;2.28;1.40;;;14.70;99.90;;;;;;5075973;28;20222;-69
2022/08/06 00:43:02;;;;;;;3.20;1.40;;;14.70;99.90;;;;;;5089318;28;20260;-69
2022/08/06 00:45:29;;;;;;;1.30;1.20;;;14.60;99.90;;;;;;5076116;28;20248;-73
2022/08/06 00:47:55;;;;;;;3.50;2.08;;;14.60;99.90;;;;;;5088636;28;20179;-69
2022/08/06 00:50:21;;;;;;;2.45;2.35;;;14.60;99.90;;;;;;5093245;28;20189;-69
2022/08/06 00:52:46;;;;;;;3.53;2.00;;;14.50;99.90;;;;;;5043124;28;20180;-69
2022/08/06 00:55:13;;;;;;;2.95;2.10;;;14.50;99.90;;;;;;5091767;28;20514;-69
2022/08/06 00:57:39;;;;;;;1.88;1.67;;;14.50;99.90;;;;;;5075250;28;20181;-69
2022/08/06 01:00:06;;;;;;;5.43;4.25;;;14.50;99.90;;;;;;5091564;28;20291;-69
2022/08/06 01:02:32;;;;;;;2.40;2.17;;;14.50;99.90;;;;;;5076046;28;20196;-69
2022/08/06 01:04:58;;;;;;;3.75;3.38;;;14.50;99.90;;;;;;5093027;28;20180;-69
2022/08/06 01:07:24;;;;;;;4.97;1.95;;;14.60;99.90;;;;;;5058310;28;20215;-69
2022/08/06 01:09:50;;;;;;;2.33;2.13;;;14.60;99.90;;;;;;5089506;28;20236;-69
2022/08/06 01:12:16;;;;;;;3.13;2.08;;;14.50;99.90;;;;;;5090008;28;20181;-69
2022/08/06 01:14:42;;;;;;;2.83;2.13;;;14.50;99.90;;;;;;5093004;28;20280;-69
2022/08/06 01:17:33;;;;;;;1.70;1.60;;;14.50;99.90;;;;;;5093042;28;20263;-69
2022/08/06 01:20:25;;;;;;;3.38;1.50;;;14.50;99.90;;;;;;5090254;28;20215;-69
2022/08/06 01:23:07;;;;;;;1.90;1.80;;;14.40;99.90;;;;;;5082447;28;20185;-69
2022/08/06 01:25:54;;;;;;;1.90;1.80;;;14.40;99.90;;;;;;5089388;28;20644;-69
2022/08/06 01:28:25;;;;;;;2.25;1.88;;;14.40;99.90;;;;;;5067153;28;20234;-69
2022/08/06 01:30:57;;;;;;;1.88;1.77;;;14.40;99.90;;;;;;5087163;28;20180;-69
2022/08/06 01:33:33;;;;;;;5.70;2.58;;;14.40;99.90;;;;;;5086111;28;20193;-71
2022/08/06 01:36:04;;;;;;;2.15;1.38;;;14.40;99.90;;;;;;5091704;28;20653;-69
2022/08/06 01:38:40;;;;;;;4.47;1.52;;;14.30;99.90;;;;;;5066474;28;20208;-69
2022/08/06 01:41:11;;;;;;;3.47;1.77;;;14.30;99.90;;;;;;5091344;28;20196;-69
2022/08/06 01:43:38;;;;;;;2.28;1.90;;;14.30;99.90;;;;;;5070444;28;20181;-69
2022/08/06 01:46:05;;;;;;;4.85;2.33;;;14.20;99.90;;;;;;5074500;28;20287;-69
2022/08/06 01:48:36;;;;;;;5.32;2.53;;;14.20;99.90;;;;;;5088499;28;20192;-69
2022/08/06 01:51:07;;;;;;;1.42;1.40;;;14.20;99.90;;;;;;5093104;28;20184;-70
2022/08/06 01:53:36;;;;;;;2.42;2.20;;;14.10;99.90;;;;;;5080181;28;20295;-70
2022/08/06 01:56:06;;;;;;;2.08;1.77;;;14.10;99.90;;;;;;5069403;28;20307;-69
2022/08/06 01:58:38;;;;;;;4.80;2.50;;;14.10;99.90;;;;;;5078379;28;20227;-69
2022/08/06 02:01:08;;;;;;;4.90;2.70;;;14.10;99.90;;;;;;5075743;28;20201;-69
2022/08/06 02:03:40;;;;;;;7.85;4.15;;;14.00;99.90;;;;;;5082457;28;20215;-69
2022/08/06 02:06:07;;;;;;;6.05;4.20;;;13.90;99.90;;;;;;5086964;28;20230;-69
2022/08/06 02:08:36;;;;;;;6.47;3.60;;;13.80;99.90;;;;;;5063008;28;20218;-70
2022/08/06 02:11:04;;;;;;;6.43;3.95;;;13.80;99.90;;;;;;5092199;28;20200;-73
2022/08/06 02:13:32;;;;;;;3.88;3.38;;;13.80;99.90;;;;;;5089854;28;20188;-69
2022/08/06 02:16:01;;;;;;;5.82;3.80;;;13.80;99.90;;;;;;5074537;28;20187;-70
2022/08/06 02:18:31;;;;;;;3.83;3.40;;;13.80;99.90;;;;;;5070757;28;20249;-69
2022/08/06 02:21:00;;;;;;;4.88;2.80;;;13.80;99.90;;;;;;5061666;28;20553;-70
2022/08/06 02:23:28;;;;;;;3.88;3.35;;;13.80;99.90;;;;;;5071728;28;20184;-69
2022/08/06 02:25:55;;;;;;;2.92;2.47;;;13.70;99.90;;;;;;5064521;28;20787;-73
2022/08/06 02:28:23;;;;;;;3.60;2.65;;;13.70;99.90;;;;;;5090223;28;20263;-69
2022/08/06 02:30:53;;;;;;;8.18;2.58;;;13.70;99.90;;;;;;5083883;28;20169;-69
2022/08/06 02:33:19;;;;;;;3.58;3.28;;;13.70;99.90;;;;;;5091992;28;20199;-70
2022/08/06 02:35:57;;;;;;;6.28;3.58;;;13.70;99.90;;;;;;5053671;28;20181;-70
2022/08/06 02:38:33;;;;;;;3.65;2.90;;;13.70;99.90;;;;;;5068394;28;20564;-71
2022/08/06 02:41:27;;;;;;;3.08;2.78;;;13.70;99.90;;;;;;5081879;28;20225;-70
2022/08/06 02:44:22;;;;;;;2.15;2.05;;;13.70;99.90;;;;;;5078174;28;20181;-69
2022/08/06 02:46:59;;;;;;;2.40;2.20;;;13.60;99.90;;;;;;5070276;28;20196;-70
2022/08/06 02:49:27;;;;;;;4.20;3.20;;;13.60;99.90;;;;;;5076111;28;20177;-70
2022/08/06 02:52:04;;;;;;;11.90;3.60;;;13.50;99.90;;;;;;5073300;28;20227;-69
2022/08/06 02:54:43;;;;;;;4.07;3.22;;;13.60;99.90;;;;;;5079750;28;20557;-70
2022/08/06 02:57:16;;;;;;;2.90;2.53;;;13.60;99.90;;;;;;5062158;28;20523;-70
2022/08/06 02:59:48;;;;;;;4.40;3.63;;;13.60;99.90;;;;;;5090521;28;20208;-70
2022/08/06 03:02:16;;;;;;;6.70;3.58;;;13.60;99.90;;;;;;5082322;28;20181;-69
2022/08/06 03:04:46;;;;;;;2.83;2.50;;;13.60;99.90;;;;;;5091266;28;20177;-70
2022/08/06 03:07:13;;;;;;;3.95;2.70;;;13.60;99.90;;;;;;5068545;28;20210;-70
2022/08/06 03:09:44;;;;;;;2.67;2.45;;;13.50;99.90;;;;;;5061453;28;20243;-70
2022/08/06 03:12:11;;;;;;;2.50;2.30;;;13.50;99.90;;;;;;5082686;28;20181;-70
2022/08/06 03:14:39;;;;;;;2.28;1.98;;;13.50;99.90;;;;;;5089964;28;20233;-70
2022/08/06 03:17:07;;;;;;;1.95;1.80;;;13.50;99.90;;;;;;5065217;28;20184;-70
2022/08/06 03:19:34;;;;;;;2.78;2.38;;;13.50;99.90;;;;;;5075018;28;20704;-70
2022/08/06 03:22:02;;;;;;;3.47;2.33;;;13.60;99.90;;;;;;5077134;28;20185;-70
2022/08/06 03:24:29;;;;;;;1.60;1.50;;;13.60;99.90;;;;;;5077538;28;20189;-70
2022/08/06 03:26:58;;;;;;;2.83;1.70;;;13.60;99.90;;;;;;5080166;28;20189;-70
2022/08/06 03:29:26;;;;;;;2.45;2.10;;;13.50;99.90;;;;;;5058121;28;20220;-70
2022/08/06 03:31:53;;;;;;;3.50;2.20;;;13.50;99.90;;;;;;5072486;28;20184;-69
2022/08/06 03:34:19;;;;;;;2.45;1.98;;;13.50;99.90;;;;;;5061199;28;20193;-69
2022/08/06 03:36:45;;;;;;;2.22;2.00;;;13.60;99.90;;;;;;5068525;28;20189;-69
2022/08/06 03:39:12;;;;;;;3.40;2.90;;;13.50;99.90;;;;;;5092026;28;20211;-70
2022/08/06 03:41:40;;;;;;;2.22;2.03;;;13.50;99.90;;;;;;5091892;28;20197;-69
2022/08/06 03:44:07;;;;;;;2.83;1.77;;;13.50;99.90;;;;;;5094274;28;20184;-70
2022/08/06 03:46:38;;;;;;;5.28;1.85;;;13.50;99.90;;;;;;5091159;28;20668;-70
2022/08/06 03:49:07;;;;;;;1.80;1.70;;;13.50;99.90;;;;;;5083831;28;20181;-72
2022/08/06 03:51:35;;;;;;;3.03;1.60;;;13.50;99.90;;;;;;5094788;28;20530;-70
2022/08/06 03:54:01;;;;;;;2.45;1.75;;;13.50;99.90;;;;;;5087006;28;20639;-70
2022/08/06 03:56:28;;;;;;;1.83;1.73;;;13.40;99.90;;;;;;5045751;28;20205;-70
2022/08/06 03:58:56;;;;;;;2.40;1.90;;;13.50;99.90;;;;;;5073895;28;20228;-70
2022/08/06 04:01:25;;;;;;;1.88;1.77;;;13.50;99.90;;;;;;5090572;28;20184;-70
2022/08/06 04:03:52;;;;;;;3.58;1.90;;;13.40;99.90;;;;;;5094694;28;20181;-70
2022/08/06 04:06:20;;;;;;;6.00;1.77;;;13.40;99.90;;;;;;5082466;28;20192;-70
2022/08/06 04:08:47;;;;;;;1.88;1.77;;;13.40;99.90;;;;;;5087502;28;20681;-70
2022/08/06 04:11:14;;;;;;;2.40;1.73;;;13.40;99.90;;;;;;5092616;28;20208;-70
2022/08/06 04:13:42;;;;;;;3.30;2.38;;;13.40;99.90;;;;;;5092754;28;20257;-70
2022/08/06 04:16:08;;;;;;;3.58;2.10;;;13.50;99.90;;;;;;5089084;28;20243;-70
2022/08/06 04:18:36;;;;;;;2.88;2.15;;;13.50;99.90;;;;;;5076005;28;20220;-70
2022/08/06 04:21:06;;;;;;;3.33;2.75;;;13.50;99.90;;;;;;5065455;28;20701;-70
2022/08/06 04:23:32;;;;;;;2.92;2.33;;;13.50;99.90;;;;;;5075200;28;20638;-70
2022/08/06 04:26:01;;;;;;;2.25;2.05;;;13.50;99.90;;;;;;5076513;28;20216;-70
2022/08/06 04:28:30;;;;;;;3.42;1.95;;;13.50;99.90;;;;;;5071678;28;20246;-70
2022/08/06 04:30:58;;;;;;;2.95;2.75;;;13.50;99.90;;;;;;5091924;28;20185;-70
2022/08/06 04:33:26;;;;;;;2.20;2.03;;;13.50;99.90;;;;;;5094071;28;20784;-73
2022/08/06 04:35:52;;;;;;;3.95;3.17;;;13.60;99.90;;;;;;5082766;28;20645;-70
2022/08/06 04:38:21;;;;;;;4.50;1.98;;;13.60;99.90;;;;;;5072527;28;20235;-70
2022/08/06 04:40:48;;;;;;;3.03;2.25;;;13.70;99.90;;;;;;5094240;28;20215;-70
2022/08/06 04:43:14;;;;;;;3.45;2.50;;;13.70;99.90;;;;;;5072341;28;20196;-74
2022/08/06 04:45:41;;;;;;;4.00;2.38;;;13.70;99.90;;;;;;5075331;28;20196;-70
2022/08/06 04:48:10;;;;;;;3.45;1.88;;;13.80;99.90;;;;;;5073391;28;20173;-70
2022/08/06 04:50:37;;;;;;;3.35;1.88;;;13.90;99.90;;;;;;5093083;28;20191;-71
2022/08/06 04:53:15;;;;;;;2.00;1.80;;;13.90;99.90;;;;;;5078311;28;20188;-70
2022/08/06 04:55:42;;;;;;;1.95;1.85;;;13.90;99.90;;;;;;5093908;28;20181;-70
2022/08/06 04:58:10;;;;;;;1.98;1.88;;;14.00;99.90;;;;;;5079922;28;20187;-70
2022/08/06 05:00:38;;;;;;;6.13;2.15;;;14.10;99.90;;;;;;5088849;28;20174;-70
2022/08/06 05:03:04;;;;;;;8.32;2.33;;;14.20;99.90;;;;;;5089346;28;20211;-70
2022/08/06 05:05:35;;;;;;;3.42;2.10;;;14.30;99.90;;;;;;5072725;28;20749;-70
2022/08/06 05:08:02;;;;;;;2.90;2.17;;;14.40;99.90;;;;;;5088600;28;20184;-72
2022/08/06 05:10:35;;;;;;;1.83;1.73;;;14.50;99.90;;;;;;5093140;28;20246;-70
2022/08/06 05:13:02;;;;;;;4.05;2.00;;;14.50;99.90;;;;;;5074780;28;20188;-70
2022/08/06 05:15:32;;;;;;;1.65;1.55;;;14.60;99.90;;;;;;5047398;28;20192;-70
2022/08/06 05:18:19;;;;;;;1.90;1.80;;;14.70;99.90;;;;;;5071535;28;20705;-69
2022/08/06 05:20:49;;;;;;;2.10;2.00;;;14.80;99.90;;;;;;5081021;28;20195;-70
2022/08/06 05:23:22;;;;;;;6.10;2.40;;;14.90;99.90;;;;;;5070957;28;20189;-70
2022/08/06 05:25:49;;;;;;;7.35;2.35;;;14.90;99.90;;;;;;5080235;28;20181;-70
2022/08/06 05:28:14;;;;;;;2.92;2.22;;;15.00;99.90;;;;;;5075240;28;20273;-70
2022/08/06 05:30:51;;;;;;;3.10;1.95;;;15.00;99.90;;;;;;5092809;28;20575;-69
2022/08/06 05:33:27;;;;;;;2.10;2.00;;;15.10;99.90;;;;;;5093344;28;20184;-70
2022/08/06 05:35:54;;;;;;;1.85;1.73;;;15.20;99.90;;;;;;5058091;28;20205;-69
2022/08/06 05:38:20;;;;;;;2.30;2.10;;;15.30;99.90;;;;;;5064017;28;20213;-70
2022/08/06 05:40:46;;;;;;;1.63;1.52;;;15.40;99.90;;;;;;5055204;28;20607;-70
2022/08/06 05:43:12;;;;;;;3.67;1.98;;;15.50;99.90;;;;;;5042177;28;20185;-70
2022/08/06 05:45:40;;;;;;;5.72;2.17;;;15.60;99.90;;;;;;5071340;28;20216;-69
2022/08/06 05:48:07;;;;;;;3.97;2.00;;;15.70;99.90;;;;;;5086065;28;20180;-70
2022/08/06 05:50:37;;;;;;;1.45;1.35;;;15.80;99.90;;;;;;5053805;28;20185;-70
2022/08/06 05:53:12;;;;;;;2.67;2.03;;;15.90;99.90;;;;;;5093589;28;20192;-70
2022/08/06 05:55:45;;;;;;;2.72;2.45;;;15.90;99.90;;;;;;5082783;28;20184;-69
2022/08/06 05:58:15;;;;;;;4.50;2.65;;;16.00;99.90;;;;;;5090500;28;20581;-69
2022/08/06 06:00:42;;;;;;;4.72;2.47;;;16.20;99.90;;;;;;5069563;28;20212;-69
2022/08/06 06:03:13;;;;;;;7.32;3.60;;;16.30;99.90;;;;;;5092198;28;20188;-69
2022/08/06 06:05:40;;;;;;;4.35;2.38;;;16.50;99.90;;;;;;5077561;28;20255;-69
2022/08/06 06:08:08;;;;;;;6.28;2.45;;;16.50;99.90;;;;;;5081855;28;20742;-70
2022/08/06 06:10:34;;;;;;;3.78;2.42;;;16.60;99.90;;;;;;5078999;28;20267;-70
2022/08/06 06:13:02;;;;;;;2.22;1.90;;;16.60;99.90;;;;;;5068932;28;20185;-69
2022/08/06 06:15:28;;;;;;;2.40;2.03;;;16.80;99.90;;;;;;5044158;28;20217;-69
2022/08/06 06:18:19;;;;;;;4.72;2.42;;;16.90;99.90;;;;;;5073892;28;20211;-69
2022/08/06 06:21:21;;;;;;;6.43;2.67;;;16.90;99.90;;;;;;5081519;28;20189;-69
2022/08/06 06:23:52;;;;;;;2.00;1.90;;;17.00;99.90;;;;;;5073499;28;20203;-69
2022/08/06 06:26:32;;;;;;;3.00;1.45;;;17.20;99.90;;;;;;5074469;28;20196;-68
2022/08/06 06:29:30;;;;;;;1.77;1.63;;;17.30;99.90;;;;;;5082138;28;20653;-69
2022/08/06 06:33:03;;;;;;;3.75;1.58;;;17.30;99.90;;;;;;5073637;28;20234;-69
2022/08/06 06:35:37;;;;;;;1.48;1.38;;;17.50;99.90;;;;;;4976589;28;20200;-69
2022/08/06 06:38:09;;;;;;;3.28;2.05;;;17.70;99.90;;;;;;5074162;28;20177;-69
2022/08/06 06:41:09;;;;;;;1.38;1.35;;;17.80;99.90;;;;;;5088311;28;20173;-69
2022/08/06 06:44:00;;;;;;;1.88;1.67;;;17.80;99.90;;;;;;5066278;28;20276;-69
2022/08/06 06:46:47;;;;;;;1.35;1.25;;;17.90;99.90;;;;;;5088100;28;20181;-69
2022/08/06 06:49:37;;;;;;;2.55;1.60;;;17.90;99.90;;;;;;5078016;28;20176;-70
2022/08/06 06:52:24;;;;;;;8.52;1.95;;;18.00;99.90;;;;;;5086041;28;20285;-70
2022/08/06 06:54:57;;;;;;;4.88;1.65;;;18.00;99.90;;;;;;5092210;28;20184;-69
2022/08/06 06:57:31;;;;;;;1.65;1.55;;;18.20;99.90;;;;;;5092192;28;20227;-69
2022/08/06 07:00:00;;;;;;;5.32;1.45;;;18.10;99.90;;;;;;5086924;28;20212;-69
2022/08/06 07:02:30;;;;;;;3.45;1.75;;;18.20;99.90;;;;;;5083597;28;20661;-69
2022/08/06 07:04:57;;;;;;;2.58;1.42;;;18.30;99.90;;;;;;5090546;28;20677;-69
2022/08/06 07:07:25;;;;;;;4.35;1.60;;;18.40;99.90;;;;;;5052483;28;20710;-69
2022/08/06 07:09:53;;;;;;;0.93;0.93;;;18.50;99.90;;;;;;5085250;28;20195;-69
2022/08/06 07:12:21;;;;;;;12.23;2.50;;;18.50;99.90;;;;;;5090228;28;20184;-69
2022/08/06 07:14:50;;;;;;;8.48;2.08;;;18.70;99.90;;;;;;5038486;28;20655;-68
2022/08/06 07:17:18;;;;;;;1.95;1.30;;;18.90;99.90;;;;;;5087067;28;20188;-69
2022/08/06 07:19:46;;;;;;;2.05;0.80;;;18.70;99.90;;;;;;5066167;28;20724;-68
2022/08/06 07:22:13;;;;;;;1.48;1.17;;;19.00;99.90;;;;;;5061883;28;20223;-69
2022/08/06 07:24:41;;;;;;;2.83;1.10;;;18.90;99.90;;;;;;5046127;28;20268;-69
2022/08/06 07:27:08;;;;;;;1.65;1.55;;;18.90;99.90;;;;;;5091043;28;20259;-69
2022/08/06 07:29:35;;;;;;;4.80;1.60;;;19.10;99.90;;;;;;5090964;28;20199;-64
2022/08/06 07:32:01;;;;;;;3.33;1.30;;;19.10;99.90;;;;;;5071586;28;20551;-64
2022/08/06 07:34:27;;;;;;;6.28;1.75;;;19.10;99.90;;;;;;5091235;28;20188;-64
2022/08/06 07:36:54;;;;;;;1.48;1.08;;;19.30;99.90;;;;;;5090997;28;20189;-69
2022/08/06 07:39:27;;;;;;;3.53;1.38;;;19.40;99.90;;;;;;5061632;28;20265;-67
2022/08/06 07:41:54;;;;;;;1.20;1.10;;;19.60;99.90;;;;;;5090473;28;20204;-66
2022/08/06 07:44:22;;;;;;;3.05;0.88;;;20.00;99.90;;;;;;5084981;28;20188;-65
2022/08/06 07:46:51;;;;;;;2.28;1.15;;;20.80;99.90;;;;;;5074464;28;20634;-65
2022/08/06 07:49:20;;;;;;;2.17;1.13;;;22.10;99.90;;;;;;5092612;28;20177;-67
2022/08/06 07:51:47;;;;;;;1.38;0.70;;;23.20;99.90;;;;;;5095058;28;20180;-66
2022/08/06 07:54:14;;;;;;;2.08;1.40;;;23.80;99.90;;;;;;5089546;28;20200;-66
2022/08/06 07:56:42;;;;;;;1.13;1.02;;;25.00;99.90;;;;;;5076881;28;20215;-66
2022/08/06 07:59:09;;;;;;;1.38;0.73;;;25.90;99.90;;;;;;5076340;28;20216;-66
2022/08/06 08:01:36;;;;;;;0.65;0.57;;;26.30;99.90;;;;;;5076650;28;20553;-67
2022/08/06 08:06:52;;;;;;;3.60;0.77;;;27.40;99.90;;;;;;5087867;28;20680;-69
2022/08/06 08:09:21;;;;;;;7.50;0.73;;;26.50;99.90;;;;;;5086516;28;20221;-66
2022/08/06 08:11:48;;;;;;;6.18;0.57;;;26.10;99.90;;;;;;5093132;28;20172;-66
2022/08/06 08:14:17;;;;;;;1.25;0.80;;;25.60;99.90;;;;;;5088637;28;20704;-67
2022/08/06 08:16:43;;;;;;;1.23;0.85;;;24.80;99.90;;;;;;5083307;28;20212;-67
2022/08/06 08:19:24;;;;;;;3.63;2.10;;;23.90;99.90;;;;;;5086182;28;20235;-67
2022/08/06 08:21:52;;;;;;;1.50;0.95;;;24.40;99.90;;;;;;5094353;28;20179;-67
2022/08/06 08:24:18;;;;;;;1.90;1.23;;;25.20;99.90;;;;;;5088066;28;20194;-66
2022/08/06 08:26:44;;;;;;;1.23;0.47;;;25.10;99.90;;;;;;5068074;28;20621;-66
2022/08/06 08:29:11;;;;;;;0.70;0.70;;;24.90;99.90;;;;;;5059474;28;20238;-66
2022/08/06 08:31:37;;;;;;;2.53;0.60;;;25.10;99.90;;;;;;5081398;28;20201;-65
2022/08/06 08:34:03;;;;;;;0.70;0.55;;;25.20;99.90;;;;;;5089966;28;20332;-65
2022/08/06 08:36:28;;;;;;;1.05;0.50;;;24.50;99.90;;;;;;5086504;28;20218;-65
2022/08/06 08:38:57;;;;;;;1.60;0.80;;;24.00;99.90;;;;;;5092863;28;20212;-65
2022/08/06 08:41:35;;;;;;;7.78;1.25;;;24.60;99.90;;;;;;5068667;28;20272;-65
2022/08/06 08:44:06;;;;;;;0.75;0.73;;;24.60;99.90;;;;;;5089340;28;20263;-64
2022/08/06 08:46:41;;;;;;;0.70;0.50;;;24.10;99.90;;;;;;5091681;28;20689;-64
2022/08/06 08:49:15;;;;;;;1.23;1.02;;;24.40;99.90;;;;;;5091142;28;20279;-66
2022/08/06 08:51:44;;;;;;;5.78;1.20;;;24.30;99.90;;;;;;5086487;28;20181;-67
2022/08/06 08:54:13;;;;;;;1.02;0.82;;;25.40;99.90;;;;;;5090539;28;20576;-65
2022/08/06 08:56:39;;;;;;;1.48;0.60;;;26.80;99.90;;;;;;5084009;28;20189;-67
2022/08/06 08:59:04;;;;;;;2.10;0.75;;;27.90;99.90;;;;;;5090319;28;20223;-67
2022/08/06 09:01:31;;;;;;;0.65;0.65;;;28.50;99.90;;;;;;5085426;28;20222;-65
2022/08/06 09:03:57;;;;;;;4.53;1.02;;;29.50;99.90;;;;;;5092557;28;20770;-66
2022/08/06 09:06:24;;;;;;;0.82;0.65;;;29.40;99.90;;;;;;5092446;28;20214;-66
2022/08/06 09:08:50;;;;;;;0.57;0.30;;;27.30;99.90;;;;;;5090142;28;20188;-64
2022/08/06 09:11:16;;;;;;;3.85;0.70;;;26.30;99.90;;;;;;5082170;28;20188;-64
2022/08/06 09:13:42;;;;;;;3.42;1.00;;;25.60;99.90;;;;;;5068111;28;20279;-64
2022/08/06 09:16:07;;;;;;;1.83;1.73;;;25.80;99.90;;;;;;5081591;28;20256;-64
2022/08/06 09:18:34;;;;;;;6.28;3.45;;;26.10;99.90;;;;;;5084203;28;20672;-66
2022/08/06 09:21:01;;;;;;;0.40;0.40;;;25.90;99.90;;;;;;5068598;28;20180;-65
2022/08/06 09:23:27;;;;;;;1.67;0.70;;;25.80;99.90;;;;;;5093500;28;20681;-64
2022/08/06 09:25:53;;;;;;;3.47;0.82;;;25.30;99.90;;;;;;5092686;28;20660;-67
2022/08/06 09:28:36;;;;;;;3.80;1.05;;;24.50;99.90;;;;;;5085906;28;20719;-65
2022/08/06 09:31:04;;;;;;;5.50;1.48;;;24.00;99.90;;;;;;5092943;28;20259;-68
2022/08/06 09:33:32;;;;;;;1.85;0.73;;;23.70;99.90;;;;;;5087144;28;20192;-66
2022/08/06 09:36:08;;;;;;;1.52;0.52;;;22.90;99.90;;;;;;5065950;28;20270;-66
2022/08/06 09:38:55;;;;;;;2.60;0.70;;;22.60;99.90;;;;;;5086177;28;20565;-65
2022/08/06 09:41:23;;;;;;;0.75;0.50;;;22.00;99.90;;;;;;5088219;28;20214;-66
2022/08/06 09:43:51;;;;;;;0.70;0.70;;;22.10;99.90;;;;;;5090786;28;20181;-66
2022/08/06 09:46:18;;;;;;;1.65;0.40;;;22.10;99.90;;;;;;5089106;28;20268;-66
2022/08/06 09:48:57;;;;;;;1.75;0.93;;;22.00;99.90;;;;;;5070016;28;20191;-67
2022/08/06 09:51:24;;;;;;;0.32;0.32;;;22.10;99.90;;;;;;5090439;28;20199;-66
2022/08/06 09:53:55;;;;;;;0.45;0.35;;;22.10;99.90;;;;;;5074183;28;20185;-66
2022/08/06 09:56:21;;;;;;;13.13;1.00;;;22.10;99.90;;;;;;5089887;28;20681;-69
2022/08/06 09:58:47;;;;;;;0.65;0.50;;;21.90;99.90;;;;;;5084338;28;20212;-66
2022/08/06 10:01:21;;;;;;;0.40;0.38;;;22.20;99.90;;;;;;5088448;28;20658;-66
2022/08/06 10:03:49;;;;;;;1.17;0.38;;;22.60;99.90;;;;;;5092541;28;20196;-66
2022/08/06 10:06:20;;;;;;;1.65;0.68;;;22.30;99.90;;;;;;5088098;28;20185;-69
2022/08/06 10:08:48;;;;;;;0.45;0.45;;;21.50;99.90;;;;;;5083789;28;20195;-65
2022/08/06 10:11:14;;;;;;;0.50;0.50;;;20.70;99.90;;;;;;5092165;28;20203;-66
2022/08/06 10:13:46;;;;;;;1.58;0.60;;;20.80;99.90;;;;;;5074659;28;20237;-66
2022/08/06 10:16:26;;;;;;;1.67;0.57;;;21.10;99.90;;;;;;5084092;28;20169;-65
2022/08/06 10:18:52;;;;;;;1.58;0.73;;;21.20;99.90;;;;;;5085991;28;20615;-68
2022/08/06 10:21:23;;;;;;;1.23;0.40;;;21.10;99.90;;;;;;5074811;28;20212;-66
2022/08/06 10:23:51;;;;;;;0.90;0.45;;;21.00;99.90;;;;;;5090041;28;20199;-64
2022/08/06 10:26:26;;;;;;;0.30;0.30;;;21.10;99.90;;;;;;5064540;28;20261;-63
2022/08/06 10:28:53;;;;;;;0.52;0.50;;;21.00;99.90;;;;;;5092369;28;20216;-65
2022/08/06 10:31:20;;;;;;;0.45;0.40;;;21.20;99.90;;;;;;5050976;28;20181;-65
2022/08/06 10:34:15;;;;;;;2.47;0.80;;;21.60;99.90;;;;;;5092047;28;20551;-65
2022/08/06 10:36:44;;;;;;;1.05;0.68;;;21.70;99.90;;;;;;5085424;28;20224;-66
2022/08/06 10:39:13;;;;;;;0.50;0.50;;;21.40;99.90;;;;;;5093045;28;20208;-66
2022/08/06 10:41:40;;;;;;;0.45;0.45;;;21.60;99.90;;;;;;5091233;28;20172;-67
2022/08/06 10:44:06;;;;;;;0.50;0.50;;;21.50;99.90;;;;;;5074706;28;20548;-64
2022/08/06 10:46:32;;;;;;;0.30;0.30;;;21.60;99.90;;;;;;5068989;28;20268;-64
2022/08/06 10:48:59;;;;;;;0.60;0.60;;;21.80;99.90;;;;;;5083141;28;20287;-64
2022/08/06 10:51:29;;;;;;;0.40;0.40;;;21.70;99.90;;;;;;5018935;28;20194;-63
2022/08/06 10:53:55;;;;;;;2.28;1.30;;;21.80;99.90;;;;;;4992771;28;20205;-68
2022/08/06 10:56:22;;;;;;;0.60;0.50;;;21.90;99.90;;;;;;5001263;28;20202;-65
2022/08/06 10:58:49;;;;;;;6.07;1.17;;;21.70;99.90;;;;;;5029344;28;20261;-64
2022/08/06 11:01:32;;;;;;;1.08;0.98;;;21.40;99.90;;;;;;5028001;28;20205;-65
2022/08/06 11:03:58;;;;;;;0.85;0.57;;;21.70;99.90;;;;;;5029640;28;20187;-67
2022/08/06 11:06:41;;;;;;;0.80;0.43;;;21.90;99.90;;;;;;5028359;28;20203;-67
2022/08/06 11:09:26;;;;;;;0.60;0.60;;;22.10;99.90;;;;;;5028746;28;20273;-66
2022/08/06 11:12:12;;;;;;;0.47;0.45;;;22.20;99.90;;;;;;5019487;28;20543;-70
2022/08/06 11:14:39;;;;;;;1.95;0.60;;;22.30;99.90;;;;;;5029366;28;20186;-71
2022/08/06 11:17:06;;;;;;;0.50;0.50;;;22.30;99.90;;;;;;4996566;28;20278;-74
2022/08/06 11:19:42;;;;;;;2.88;0.82;;;22.20;99.90;;;;;;5016563;28;20233;-72
2022/08/06 11:22:28;;;;;;;0.50;0.50;;;22.50;99.90;;;;;;5037656;28;20192;-66
2022/08/06 11:24:54;;;;;;;1.42;0.80;;;23.10;99.90;;;;;;5089400;28;20256;-65
2022/08/06 11:27:52;;;;;;;1.30;0.93;;;23.20;99.90;;;;;;5072689;28;20545;-66
2022/08/06 11:30:19;;;;;;;6.13;1.30;;;22.90;99.90;;;;;;5068265;28;20269;-63
2022/08/06 11:32:50;;;;;;;0.80;0.60;;;22.90;99.90;;;;;;5095163;28;20275;-67
2022/08/06 11:35:34;;;;;;;0.43;0.43;;;23.10;99.90;;;;;;5089411;28;20196;-65
2022/08/06 11:38:01;;;;;;;0.43;0.20;;;23.10;99.90;;;;;;5090715;28;20180;-66
2022/08/06 11:40:28;;;;;;;0.52;0.52;;;23.10;99.90;;;;;;5074439;28;20284;-66
2022/08/06 11:42:54;;;;;;;0.70;0.70;;;22.70;99.90;;;;;;5072635;28;20265;-65
2022/08/06 11:45:19;;;;;;;1.38;1.38;;;22.00;99.90;;;;;;5095099;28;20279;-65
2022/08/06 11:48:04;;;;;;;0.40;0.40;;;22.00;99.90;;;;;;5094967;28;20695;-65
2022/08/06 11:50:30;;;;;;;0.45;0.45;;;22.30;99.90;;;;;;5069383;28;20598;-65
2022/08/06 11:52:56;;;;;;;0.73;0.63;;;22.40;99.90;;;;;;5089032;28;20215;-65
2022/08/06 11:55:22;;;;;;;0.65;0.65;;;22.50;99.90;;;;;;5073254;28;20196;-63
2022/08/06 11:57:49;;;;;;;0.50;0.50;;;22.80;99.90;;;;;;5076146;28;20185;-64
2022/08/06 12:00:21;;;;;;;1.65;0.55;;;22.90;99.90;;;;;;5089867;28;20220;-63
2022/08/06 12:02:51;;;;;;;0.75;0.50;;;23.00;99.90;;;;;;5088026;28;20174;-65
2022/08/06 12:05:17;;;;;;;1.45;0.70;;;23.10;99.90;;;;;;5060472;28;20606;-65
2022/08/06 12:07:44;;;;;;;0.73;0.63;;;23.10;99.90;;;;;;5086151;28;20272;-65
2022/08/06 12:10:13;;;;;;;1.02;0.65;;;23.20;99.90;;;;;;5093077;28;20177;-63
2022/08/06 12:12:46;;;;;;;0.80;0.80;;;22.90;99.90;;;;;;5086392;28;20176;-65
2022/08/06 12:15:12;;;;;;;5.07;1.70;;;22.60;99.90;;;;;;5094859;28;20703;-64
2022/08/06 12:17:53;;;;;;;1.33;1.13;;;22.50;99.90;;;;;;5091912;28;20181;-64
2022/08/06 12:20:31;;;;;;;0.50;0.50;;;22.80;99.90;;;;;;5079012;28;20222;-64
2022/08/06 12:23:02;;;;;;;1.35;0.65;;;23.30;99.90;;;;;;5079631;28;20172;-65
2022/08/06 12:25:35;;;;;;;1.05;0.63;;;23.50;99.90;;;;;;5086099;28;20184;-64
2022/08/06 12:28:02;;;;;;;0.93;0.93;;;23.10;99.90;;;;;;5085960;28;20181;-65
2022/08/06 12:30:43;;;;;;;2.17;0.70;;;22.80;99.90;;;;;;5059871;28;20199;-65
2022/08/06 12:33:09;;;;;;;1.45;0.95;;;22.40;99.90;;;;;;5074588;28;20177;-65
2022/08/06 12:35:47;;;;;;;1.08;0.98;;;22.50;99.90;;;;;;5093943;28;20580;-63
2022/08/06 12:38:12;;;;;;;0.90;0.88;;;22.70;99.90;;;;;;5090554;28;20242;-64
2022/08/06 12:40:38;;;;;;;1.42;1.00;;;23.20;99.90;;;;;;5053280;28;20224;-67
2022/08/06 12:43:04;;;;;;;6.93;1.17;;;23.60;99.90;;;;;;5076176;28;20188;-67
2022/08/06 12:45:32;;;;;;;2.33;0.80;;;23.70;99.90;;;;;;5089104;28;20191;-66
2022/08/06 12:47:59;;;;;;;0.98;0.95;;;23.50;99.90;;;;;;5092041;28;20177;-66
2022/08/06 12:50:26;;;;;;;1.30;1.20;;;23.30;99.90;;;;;;5085503;28;20249;-66
2022/08/06 12:53:11;;;;;;;0.95;0.70;;;22.80;99.90;;;;;;5091822;28;20207;-67
2022/08/06 12:55:42;;;;;;;0.70;0.70;;;22.60;99.90;;;;;;5088622;28;20231;-66
2022/08/06 12:58:09;;;;;;;1.45;1.35;;;22.50;99.90;;;;;;5091107;28;20215;-67
2022/08/06 13:00:36;;;;;;;0.80;0.80;;;22.30;99.90;;;;;;5075932;28;20226;-67
2022/08/06 13:03:04;;;;;;;4.88;0.82;;;22.40;99.90;;;;;;5093004;28;20556;-67
2022/08/06 13:05:31;;;;;;;2.08;0.52;;;22.70;99.90;;;;;;5093376;28;20177;-67